createdAt,value
2018-07-02T00:01:29.519Z,98619.17
2018-07-02T00:04:01.172Z,98626.77
2018-07-02T00:06:48.443Z,98621.78
2018-07-02T00:09:19.592Z,98621.12
2018-07-02T00:11:51.572Z,98623.45
2018-07-02T00:14:22.952Z,98624.78
2018-07-02T00:16:55.158Z,98625.05
2018-07-02T00:19:26.655Z,98620.42
2018-07-02T00:21:57.642Z,98621.56
2018-07-02T00:24:28.644Z,98615.78
2018-07-02T00:26:59.924Z,98623.06
2018-07-02T00:29:32.058Z,98615.13
2018-07-02T00:32:03.220Z,98623.36
2018-07-02T00:34:36.906Z,98625.34
2018-07-02T00:37:08.345Z,98625.16
2018-07-02T00:39:39.673Z,98621.66
2018-07-02T00:42:10.887Z,98620.16
2018-07-02T00:44:41.885Z,98615.16
2018-07-02T00:47:13.180Z,98621.75
2018-07-02T00:49:44.801Z,98614.58
2018-07-02T00:52:16.703Z,98616.54
2018-07-02T00:54:48.068Z,98613.83
2018-07-02T00:57:19.255Z,98613.81
2018-07-02T00:59:51.248Z,98618.77
2018-07-02T01:02:22.817Z,98617.73
2018-07-02T01:04:54.309Z,98620.08
2018-07-02T01:07:26.418Z,98620.22
2018-07-02T01:09:57.864Z,98627.45
2018-07-02T01:12:29.052Z,98623.95
2018-07-02T01:15:00.223Z,98631.19
2018-07-02T01:17:31.817Z,98628.18
2018-07-02T01:20:02.939Z,98629.63
2018-07-02T01:22:34.174Z,98628.47
2018-07-02T01:25:06.302Z,98623.79
2018-07-02T01:27:37.928Z,98625.86
2018-07-02T01:30:09.314Z,98626.50
2018-07-02T01:32:40.692Z,98621.08
2018-07-02T01:35:12.318Z,98626.92
2018-07-02T01:37:43.676Z,98623.91
2018-07-02T01:40:15.934Z,98617.93
2018-07-02T01:42:47.132Z,98620.71
2018-07-02T01:45:19.003Z,98618.05
2018-07-02T01:47:50.240Z,98612.89
2018-07-02T01:50:21.380Z,98614.22
2018-07-02T01:52:52.928Z,98615.53
2018-07-02T01:55:25.088Z,98618.50
2018-07-02T01:57:56.823Z,98621.81
2018-07-02T02:00:28.805Z,98623.09
2018-07-02T02:02:59.952Z,98633.08
2018-07-02T02:05:31.854Z,98634.50
2018-07-02T02:08:03.023Z,98635.38
2018-07-02T02:10:34.276Z,98632.31
2018-07-02T02:13:05.495Z,98629.22
2018-07-02T02:15:36.450Z,98628.98
2018-07-02T02:18:07.852Z,98625.83
2018-07-02T02:20:39.475Z,98617.42
2018-07-02T02:23:11.096Z,98620.64
2018-07-02T02:25:42.188Z,98615.68
2018-07-02T02:28:13.280Z,98616.75
2018-07-02T02:30:44.239Z,98614.86
2018-07-02T02:33:15.664Z,98606.50
2018-07-02T02:35:47.538Z,98601.83
2018-07-02T02:38:18.785Z,98603.44
2018-07-02T02:40:49.916Z,98598.67
2018-07-02T02:43:21.220Z,98600.25
2018-07-02T02:45:53.445Z,98604.79
2018-07-02T02:48:24.593Z,98603.05
2018-07-02T02:50:56.038Z,98608.56
2018-07-02T02:53:27.204Z,98610.77
2018-07-02T02:55:58.440Z,98615.80
2018-07-02T02:58:29.873Z,98616.69
2018-07-02T03:01:01.870Z,98619.02
2018-07-02T03:03:32.985Z,98623.36
2018-07-02T03:06:04.288Z,98628.48
2018-07-02T03:08:35.400Z,98622.70
2018-07-02T03:11:06.837Z,98617.88
2018-07-02T03:13:38.115Z,98619.20
2018-07-02T03:16:09.694Z,98622.23
2018-07-02T03:18:41.652Z,98619.48
2018-07-02T03:21:14.932Z,98621.72
2018-07-02T03:23:46.111Z,98620.64
2018-07-02T03:26:17.094Z,98624.39
2018-07-02T03:28:48.322Z,98624.75
2018-07-02T03:31:19.204Z,98628.14
2018-07-02T03:33:50.468Z,98631.78
2018-07-02T03:36:21.389Z,98632.38
2018-07-02T03:38:52.495Z,98631.02
2018-07-02T03:41:23.537Z,98625.79
2018-07-02T03:43:55.534Z,98626.95
2018-07-02T03:46:26.806Z,98622.67
2018-07-02T03:48:58.997Z,98625.11
2018-07-02T03:51:30.221Z,98620.80
2018-07-02T03:54:01.443Z,98616.64
2018-07-02T03:56:32.782Z,98615.00
2018-07-02T03:59:04.125Z,98613.84
2018-07-02T04:01:36.552Z,98611.41
2018-07-02T04:04:08.284Z,98614.92
2018-07-02T04:06:39.541Z,98612.89
2018-07-02T04:09:13.768Z,98617.28
2018-07-02T04:11:44.820Z,98614.27
2018-07-02T04:14:15.261Z,98615.19
2018-07-02T04:16:45.846Z,98607.03
2018-07-02T04:19:16.783Z,98611.34
2018-07-02T04:21:47.877Z,98615.92
2018-07-02T04:24:19.938Z,98620.41
2018-07-02T04:26:51.691Z,98617.01
2018-07-02T04:29:23.879Z,98621.08
2018-07-02T04:31:55.152Z,98623.80
2018-07-02T04:34:26.564Z,98620.52
2018-07-02T04:36:57.806Z,98619.23
2018-07-02T04:39:29.056Z,98621.94
2018-07-02T04:42:00.615Z,98629.99
2018-07-02T04:44:31.724Z,98624.30
2018-07-02T04:47:02.978Z,98621.23
2018-07-02T04:49:34.467Z,98621.04
2018-07-02T04:52:07.247Z,98621.48
2018-07-02T04:54:39.360Z,98614.84
2018-07-02T04:57:10.490Z,98616.41
2018-07-02T04:59:41.736Z,98622.48
2018-07-02T05:02:12.929Z,98628.18
2018-07-02T05:04:44.219Z,98627.91
2018-07-02T05:07:16.129Z,98627.27
2018-07-02T05:09:47.366Z,98629.27
2018-07-02T05:12:18.536Z,98627.98
2018-07-02T05:14:50.601Z,98630.50
2018-07-02T05:17:21.673Z,98632.99
2018-07-02T05:19:52.846Z,98632.72
2018-07-02T05:22:24.609Z,98632.06
2018-07-02T05:24:55.770Z,98634.05
2018-07-02T05:27:27.129Z,98641.65
2018-07-02T05:29:58.228Z,98636.87
2018-07-02T05:32:29.615Z,98634.05
2018-07-02T05:35:00.913Z,98634.55
2018-07-02T05:37:32.279Z,98638.00
2018-07-02T05:40:03.472Z,98637.80
2018-07-02T05:42:34.472Z,98636.27
2018-07-02T05:45:07.105Z,98635.41
2018-07-02T05:47:38.238Z,98641.97
2018-07-02T05:50:09.763Z,98643.91
2018-07-02T05:52:41.435Z,98640.15
2018-07-02T05:55:13.290Z,98645.28
2018-07-02T05:57:44.731Z,98649.55
2018-07-02T06:00:17.324Z,98646.81
2018-07-02T06:02:49.456Z,98638.23
2018-07-02T06:05:20.856Z,98646.86
2018-07-02T06:07:52.221Z,98640.11
2018-07-02T06:10:24.104Z,98639.03
2018-07-02T06:12:55.677Z,98632.01
2018-07-02T06:15:28.200Z,98635.23
2018-07-02T06:18:00.538Z,98640.27
2018-07-02T06:20:31.889Z,98635.16
2018-07-02T06:23:03.486Z,98639.56
2018-07-02T06:25:35.184Z,98641.58
2018-07-02T06:28:05.953Z,98634.43
2018-07-02T06:30:38.361Z,98633.15
2018-07-02T06:33:10.048Z,98628.17
2018-07-02T06:35:41.657Z,98632.02
2018-07-02T06:38:14.062Z,98634.58
2018-07-02T06:40:45.769Z,98640.70
2018-07-02T06:43:18.370Z,98643.30
2018-07-02T06:45:51.717Z,98638.07
2018-07-02T06:48:23.943Z,98644.87
2018-07-02T06:50:56.108Z,98648.31
2018-07-02T06:53:27.345Z,98652.72
2018-07-02T06:55:59.088Z,98658.80
2018-07-02T06:58:31.626Z,98655.29
2018-07-02T07:01:03.234Z,98665.70
2018-07-02T07:03:34.702Z,98663.06
2018-07-02T07:06:07.089Z,98661.42
2018-07-02T07:08:41.912Z,98667.22
2018-07-02T07:11:20.747Z,98663.48
2018-07-02T07:13:53.669Z,98669.26
2018-07-02T07:16:27.315Z,98667.61
2018-07-02T07:18:59.429Z,98674.63
2018-07-02T07:21:31.983Z,98668.44
2018-07-02T07:24:04.654Z,98677.54
2018-07-02T07:26:37.355Z,98674.51
2018-07-02T07:29:08.753Z,98667.80
2018-07-02T07:31:43.547Z,98675.73
2018-07-02T07:34:17.100Z,98676.92
2018-07-02T07:36:49.404Z,98663.67
2018-07-02T07:39:22.101Z,98667.27
2018-07-02T07:41:55.840Z,98660.97
2018-07-02T07:44:29.939Z,98665.58
2018-07-02T07:47:02.436Z,98659.67
2018-07-02T07:49:35.287Z,98664.06
2018-07-02T07:52:08.029Z,98661.95
2018-07-02T07:54:40.676Z,98661.51
2018-07-02T07:57:13.799Z,98667.47
2018-07-02T07:59:45.380Z,98661.65
2018-07-02T08:02:17.517Z,98659.22
2018-07-02T08:04:49.850Z,98653.63
2018-07-02T08:07:21.769Z,98655.72
2018-07-02T08:09:55.179Z,98655.59
2018-07-02T08:12:27.144Z,98658.28
2018-07-02T08:14:59.104Z,98660.79
2018-07-02T08:17:30.861Z,98661.98
2018-07-02T08:20:02.483Z,98653.02
2018-07-02T08:22:34.970Z,98662.55
2018-07-02T08:25:07.838Z,98665.06
2018-07-02T08:27:39.138Z,98665.75
2018-07-02T08:30:11.600Z,98670.11
2018-07-02T08:32:42.888Z,98672.23
2018-07-02T08:35:14.622Z,98665.39
2018-07-02T08:37:45.875Z,98659.48
2018-07-02T08:40:17.776Z,98656.69
2018-07-02T08:42:49.599Z,98662.89
2018-07-02T08:45:20.956Z,98664.35
2018-07-02T08:47:52.614Z,98666.78
2018-07-02T08:50:23.964Z,98665.59
2018-07-02T08:52:56.174Z,98665.42
2018-07-02T08:55:28.343Z,98665.34
2018-07-02T08:58:00.752Z,98663.38
2018-07-02T09:00:32.256Z,98671.11
2018-07-02T09:03:03.549Z,98671.31
2018-07-02T09:05:35.086Z,98676.56
2018-07-02T09:08:07.099Z,98669.80
2018-07-02T09:10:38.534Z,98670.47
2018-07-02T09:13:10.069Z,98671.68
2018-07-02T09:15:41.889Z,98677.02
2018-07-02T09:18:13.240Z,98680.94
2018-07-02T09:20:45.407Z,98687.98
2018-07-02T09:23:16.653Z,98670.80
2018-07-02T09:25:47.577Z,98677.23
2018-07-02T09:28:18.379Z,98676.40
2018-07-02T09:30:49.648Z,98676.92
2018-07-02T09:33:22.129Z,98674.38
2018-07-02T09:35:53.101Z,98669.23
2018-07-02T09:38:24.599Z,98676.70
2018-07-02T09:40:56.316Z,98682.97
2018-07-02T09:43:27.313Z,98678.83
2018-07-02T09:45:58.466Z,98674.30
2018-07-02T09:48:29.454Z,98666.77
2018-07-02T09:51:01.369Z,98667.64
2018-07-02T09:53:33.640Z,98666.27
2018-07-02T09:56:05.387Z,98669.34
2018-07-02T09:58:37.402Z,98662.26
2018-07-02T10:01:09.279Z,98657.06
2018-07-02T10:03:40.735Z,98653.48
2018-07-02T10:06:12.608Z,98651.75
2018-07-02T10:08:45.160Z,98651.10
2018-07-02T10:11:18.744Z,98641.34
2018-07-02T10:13:53.207Z,98640.23
2018-07-02T10:16:24.399Z,98645.22
2018-07-02T10:18:56.484Z,98643.71
2018-07-02T10:21:33.399Z,98646.76
2018-07-02T10:24:05.442Z,98644.55
2018-07-02T10:26:39.781Z,98635.80
2018-07-02T10:29:13.201Z,98639.73
2018-07-02T10:31:45.349Z,98637.81
2018-07-02T10:34:18.347Z,98633.00
2018-07-02T10:36:50.892Z,98630.28
2018-07-02T10:39:24.697Z,98631.82
2018-07-02T10:41:57.421Z,98630.62
2018-07-02T10:44:29.633Z,98624.06
2018-07-02T10:47:04.223Z,98618.86
2018-07-02T10:49:36.843Z,98628.75
2018-07-02T10:52:09.329Z,98623.92
2018-07-02T10:54:40.528Z,98628.47
2018-07-02T10:57:12.061Z,98627.73
2018-07-02T10:59:44.142Z,98623.35
2018-07-02T11:02:17.016Z,98616.84
2018-07-02T11:04:49.387Z,98614.17
2018-07-02T11:07:20.975Z,98611.26
2018-07-02T11:09:52.858Z,98612.31
2018-07-02T11:12:25.381Z,98612.81
2018-07-02T11:14:57.943Z,98620.05
2018-07-02T11:17:29.545Z,98614.14
2018-07-02T11:20:03.134Z,98624.03
2018-07-02T11:22:35.783Z,98613.06
2018-07-02T11:25:08.176Z,98614.41
2018-07-02T11:27:40.156Z,98610.77
2018-07-02T11:30:13.929Z,98600.21
2018-07-02T11:32:46.846Z,98597.66
2018-07-02T11:35:18.693Z,98588.14
2018-07-02T11:37:49.228Z,98595.70
2018-07-02T11:40:21.120Z,98600.77
2018-07-02T11:42:53.300Z,98598.59
2018-07-02T11:45:26.182Z,98600.43
2018-07-02T11:47:59.007Z,98589.61
2018-07-02T11:50:31.678Z,98595.23
2018-07-02T11:53:03.736Z,98603.84
2018-07-02T11:55:34.953Z,98595.30
2018-07-02T11:58:06.621Z,98592.42
2018-07-02T12:00:38.736Z,98605.48
2018-07-02T12:03:11.060Z,98592.05
2018-07-02T12:05:45.113Z,98589.16
2018-07-02T12:08:17.115Z,98592.78
2018-07-02T12:10:52.230Z,98587.95
2018-07-02T12:13:26.679Z,98576.50
2018-07-02T12:16:02.993Z,98574.89
2018-07-02T12:18:35.457Z,98572.89
2018-07-02T12:21:09.643Z,98574.70
2018-07-02T12:23:44.027Z,98572.23
2018-07-02T12:26:18.863Z,98575.55
2018-07-02T12:28:51.934Z,98572.75
2018-07-02T12:31:25.868Z,98575.76
2018-07-02T12:34:22.263Z,98570.86
2018-07-02T12:36:56.335Z,98561.17
2018-07-02T12:39:33.193Z,98565.92
2018-07-02T12:42:05.556Z,98562.98
2018-07-02T12:44:38.263Z,98561.19
2018-07-02T12:47:10.904Z,98562.77
2018-07-02T12:49:43.633Z,98565.78
2018-07-02T12:52:19.611Z,98558.64
2018-07-02T12:55:02.452Z,98551.80
2018-07-02T12:57:47.170Z,98553.28
2018-07-02T13:00:22.263Z,98558.19
2018-07-02T13:02:59.156Z,98544.02
2018-07-02T13:05:38.325Z,98552.13
2018-07-02T13:08:12.135Z,98547.53
2018-07-02T13:10:44.412Z,98535.90
2018-07-02T13:13:20.076Z,98535.66
2018-07-02T13:15:53.171Z,98539.92
2018-07-02T13:18:25.288Z,98533.62
2018-07-02T13:20:57.067Z,98539.00
2018-07-02T13:23:29.518Z,98533.12
2018-07-02T13:26:03.978Z,98531.75
2018-07-02T13:28:38.419Z,98523.03
2018-07-02T13:31:11.388Z,98524.23
2018-07-02T13:33:44.996Z,98527.52
2018-07-02T13:36:20.187Z,98525.59
2018-07-02T13:38:54.563Z,98530.52
2018-07-02T13:41:36.628Z,98528.20
2018-07-02T13:44:11.408Z,98537.52
2018-07-02T13:46:46.473Z,98528.81
2018-07-02T13:49:23.707Z,98526.57
2018-07-02T13:52:05.780Z,98530.94
2018-07-02T13:54:43.579Z,98526.60
2018-07-02T13:57:15.822Z,98520.90
2018-07-02T13:59:48.431Z,98524.43
2018-07-02T14:02:20.070Z,98509.94
2018-07-02T14:04:52.537Z,98516.06
2018-07-02T14:07:24.504Z,98515.27
2018-07-02T14:09:57.465Z,98515.09
2018-07-02T14:12:30.270Z,98507.00
2018-07-02T14:15:01.734Z,98507.71
2018-07-02T14:17:34.661Z,98514.84
2018-07-02T14:20:10.646Z,98507.37
2018-07-02T14:22:45.091Z,98507.33
2018-07-02T14:25:20.990Z,98512.49
2018-07-02T14:27:55.980Z,98498.58
2018-07-02T14:30:28.429Z,98498.53
2018-07-02T14:33:01.924Z,98509.14
2018-07-02T14:35:35.838Z,98507.02
2018-07-02T14:38:07.240Z,98500.16
2018-07-02T14:40:41.183Z,98500.69
2018-07-02T14:43:12.853Z,98498.39
2018-07-02T14:45:45.369Z,98494.12
2018-07-02T14:48:18.434Z,98494.47
2018-07-02T14:50:52.098Z,98491.80
2018-07-02T14:53:23.907Z,98491.80
2018-07-02T14:55:57.913Z,98493.45
2018-07-02T14:58:30.637Z,98495.45
2018-07-02T15:01:08.521Z,98495.95
2018-07-02T15:03:41.209Z,98493.28
2018-07-02T15:06:13.697Z,98497.13
2018-07-02T15:08:49.082Z,98498.58
2018-07-02T15:11:25.183Z,98502.27
2018-07-02T15:13:58.032Z,98500.95
2018-07-02T15:16:31.083Z,98504.11
2018-07-02T15:19:02.881Z,98513.45
2018-07-02T15:21:36.000Z,98497.20
2018-07-02T15:24:09.011Z,98502.48
2018-07-02T15:26:42.051Z,98503.23
2018-07-02T15:29:17.105Z,98493.53
2018-07-02T15:31:49.489Z,98500.77
2018-07-02T15:34:21.462Z,98502.05
2018-07-02T15:36:53.004Z,98511.18
2018-07-02T15:39:25.469Z,98493.37
2018-07-02T15:41:58.747Z,98497.67
2018-07-02T15:44:31.596Z,98503.69
2018-07-02T15:47:05.070Z,98510.43
2018-07-02T15:49:36.908Z,98507.83
2018-07-02T15:52:08.537Z,98507.41
2018-07-02T15:54:39.869Z,98509.03
2018-07-02T15:57:11.148Z,98507.53
2018-07-02T15:59:43.328Z,98507.45
2018-07-02T16:02:15.735Z,98506.48
2018-07-02T16:04:49.548Z,98506.16
2018-07-02T16:07:21.102Z,98508.88
2018-07-02T16:09:53.333Z,98503.17
2018-07-02T16:12:24.603Z,98508.13
2018-07-02T16:14:56.468Z,98503.59
2018-07-02T16:17:28.348Z,98505.77
2018-07-02T16:19:59.619Z,98502.42
2018-07-02T16:22:30.930Z,98498.11
2018-07-02T16:25:02.370Z,98499.98
2018-07-02T16:27:34.420Z,98501.97
2018-07-02T16:30:09.449Z,98502.98
2018-07-02T16:32:42.336Z,98508.94
2018-07-02T16:35:13.708Z,98504.98
2018-07-02T16:37:45.560Z,98513.34
2018-07-02T16:40:16.721Z,98501.17
2018-07-02T16:42:48.037Z,98498.87
2018-07-02T16:45:19.551Z,98501.91
2018-07-02T16:47:53.637Z,98510.05
2018-07-02T16:50:25.792Z,98503.50
2018-07-02T16:52:57.586Z,98503.64
2018-07-02T16:55:32.143Z,98503.06
2018-07-02T16:58:07.827Z,98507.30
2018-07-02T17:00:40.913Z,98512.16
2018-07-02T17:03:13.442Z,98510.23
2018-07-02T17:05:44.873Z,98514.61
2018-07-02T17:08:16.457Z,98515.98
2018-07-02T17:10:47.990Z,98508.31
2018-07-02T17:13:19.612Z,98512.61
2018-07-02T17:15:52.251Z,98512.42
2018-07-02T17:18:24.847Z,98512.96
2018-07-02T17:20:55.914Z,98516.70
2018-07-02T17:23:27.026Z,98521.83
2018-07-02T17:25:58.796Z,98512.34
2018-07-02T17:28:32.066Z,98513.09
2018-07-02T17:31:03.685Z,98523.23
2018-07-02T17:33:37.789Z,98527.23
2018-07-02T17:36:11.439Z,98526.86
2018-07-02T17:38:42.948Z,98521.25
2018-07-02T17:41:15.601Z,98524.63
2018-07-02T17:43:48.091Z,98529.97
2018-07-02T17:46:26.385Z,98529.87
2018-07-02T17:48:59.714Z,98531.98
2018-07-02T17:51:34.371Z,98533.69
2018-07-02T17:54:08.132Z,98530.52
2018-07-02T17:56:39.806Z,98534.63
2018-07-02T17:59:11.053Z,98543.20
2018-07-02T18:01:44.842Z,98539.65
2018-07-02T18:04:18.297Z,98545.46
2018-07-02T18:06:50.643Z,98543.78
2018-07-02T18:09:21.768Z,98548.14
2018-07-02T18:11:54.361Z,98548.09
2018-07-02T18:14:28.651Z,98558.53
2018-07-02T18:17:01.023Z,98551.13
2018-07-02T18:19:33.447Z,98555.72
2018-07-02T18:22:06.358Z,98562.89
2018-07-02T18:24:39.172Z,98564.23
2018-07-02T18:27:12.463Z,98556.06
2018-07-02T18:29:46.661Z,98561.54
2018-07-02T18:32:20.131Z,98559.73
2018-07-02T18:34:53.106Z,98574.44
2018-07-02T18:37:26.973Z,98570.94
2018-07-02T18:40:01.228Z,98570.13
2018-07-02T18:42:35.201Z,98576.22
2018-07-02T18:45:08.689Z,98570.06
2018-07-02T18:47:43.775Z,98574.61
2018-07-02T18:50:17.563Z,98574.65
2018-07-02T18:52:52.026Z,98582.06
2018-07-02T18:55:25.405Z,98579.29
2018-07-02T18:57:58.472Z,98583.41
2018-07-02T19:00:35.238Z,98582.98
2018-07-02T19:03:08.452Z,98588.33
2018-07-02T19:05:42.282Z,98583.52
2018-07-02T19:08:16.187Z,98595.16
2018-07-02T19:10:48.279Z,98599.56
2018-07-02T19:13:20.782Z,98593.09
2018-07-02T19:15:54.160Z,98593.92
2018-07-02T19:18:28.061Z,98597.21
2018-07-02T19:21:01.904Z,98605.53
2018-07-02T19:23:35.147Z,98605.94
2018-07-02T19:26:08.630Z,98610.56
2018-07-02T19:28:41.545Z,98615.01
2018-07-02T19:31:13.828Z,98611.80
2018-07-02T19:33:48.113Z,98628.06
2018-07-02T19:36:21.019Z,98631.47
2018-07-02T19:38:54.808Z,98633.20
2018-07-02T19:41:27.981Z,98634.14
2018-07-02T19:44:03.596Z,98638.84
2018-07-02T19:46:38.014Z,98643.19
2018-07-02T19:49:11.000Z,98638.38
2018-07-02T19:51:44.263Z,98647.73
2018-07-02T19:54:18.055Z,98652.47
2018-07-02T19:56:53.735Z,98660.59
2018-07-02T19:59:27.747Z,98655.64
2018-07-02T20:02:00.850Z,98660.69
2018-07-02T20:04:34.589Z,98666.86
2018-07-02T20:07:08.568Z,98668.58
2018-07-02T20:09:42.495Z,98674.87
2018-07-02T20:12:14.994Z,98673.88
2018-07-02T20:14:48.847Z,98677.27
2018-07-02T20:17:24.628Z,98675.54
2018-07-02T20:20:00.815Z,98678.45
2018-07-02T20:22:34.595Z,98682.16
2018-07-02T20:25:08.478Z,98683.16
2018-07-02T20:27:41.852Z,98686.53
2018-07-02T20:30:15.812Z,98683.95
2018-07-02T20:32:52.078Z,98686.30
2018-07-02T20:35:27.812Z,98688.55
2018-07-02T20:38:01.895Z,98686.48
2018-07-02T20:40:34.306Z,98695.89
2018-07-02T20:43:08.209Z,98689.93
2018-07-02T20:45:41.340Z,98689.59
2018-07-02T20:48:15.521Z,98690.64
2018-07-02T20:50:49.972Z,98682.74
2018-07-02T20:53:23.523Z,98691.05
2018-07-02T20:55:58.143Z,98685.00
2018-07-02T20:58:31.814Z,98679.12
2018-07-02T21:01:06.303Z,98694.73
2018-07-02T21:03:39.956Z,98686.93
2018-07-02T21:06:15.426Z,98685.41
2018-07-02T21:08:51.072Z,98691.17
2018-07-02T21:11:24.778Z,98696.91
2018-07-02T21:13:56.506Z,98698.78
2018-07-02T21:16:29.314Z,98695.27
2018-07-02T21:19:02.175Z,98701.06
2018-07-02T21:21:35.622Z,98696.28
2018-07-02T21:24:09.662Z,98699.96
2018-07-02T21:26:43.584Z,98695.34
2018-07-02T21:29:15.547Z,98692.38
2018-07-02T21:31:47.449Z,98698.22
2018-07-02T21:34:21.086Z,98705.04
2018-07-02T21:36:53.863Z,98704.45
2018-07-02T21:39:26.483Z,98700.81
2018-07-02T21:42:02.027Z,98704.45
2018-07-02T21:44:34.666Z,98704.00
2018-07-02T21:47:07.751Z,98704.83
2018-07-02T21:49:40.348Z,98703.27
2018-07-02T21:52:14.071Z,98706.23
2018-07-02T21:54:45.884Z,98705.73
2018-07-02T21:57:17.731Z,98714.16
2018-07-02T21:59:51.929Z,98714.69
2018-07-02T22:02:24.982Z,98713.09
2018-07-02T22:04:57.915Z,98715.45
2018-07-02T22:07:29.393Z,98709.17
2018-07-02T22:10:01.383Z,98708.09
2018-07-02T22:12:33.065Z,98710.34
2018-07-02T22:15:05.615Z,98710.73
2018-07-02T22:17:38.314Z,98713.84
2018-07-02T22:20:10.998Z,98716.25
2018-07-02T22:22:42.315Z,98717.72
2018-07-02T22:25:12.926Z,98718.47
2018-07-02T22:27:47.141Z,98719.17
2018-07-02T22:30:18.631Z,98726.28
2018-07-02T22:32:51.874Z,98727.05
2018-07-02T22:35:23.797Z,98733.92
2018-07-02T22:37:55.580Z,98727.69
2018-07-02T22:40:27.738Z,98728.52
2018-07-02T22:42:59.939Z,98726.38
2018-07-02T22:45:32.654Z,98730.88
2018-07-02T22:48:03.547Z,98726.52
2018-07-02T22:50:35.680Z,98730.66
2018-07-02T22:53:07.273Z,98734.88
2018-07-02T22:55:54.375Z,98729.77
2018-07-02T22:58:25.839Z,98742.19
2018-07-02T23:00:57.510Z,98734.70
2018-07-02T23:03:29.993Z,98750.29
2018-07-02T23:06:01.267Z,98737.89
2018-07-02T23:08:32.539Z,98740.84
2018-07-02T23:11:03.744Z,98745.42
2018-07-02T23:13:34.965Z,98745.28
2018-07-02T23:16:06.287Z,98741.25
2018-07-02T23:18:37.544Z,98746.12
2018-07-02T23:21:08.306Z,98744.67
2018-07-02T23:23:39.516Z,98741.78
2018-07-02T23:26:10.696Z,98741.28
2018-07-02T23:28:42.976Z,98746.67
2018-07-02T23:31:14.632Z,98742.53
2018-07-02T23:33:45.820Z,98743.12
2018-07-02T23:36:16.687Z,98740.37
2018-07-02T23:38:47.744Z,98746.98
2018-07-02T23:41:18.942Z,98741.30
2018-07-02T23:43:50.094Z,98745.35
2018-07-02T23:46:22.680Z,98738.95
2018-07-02T23:48:53.999Z,98740.56
2018-07-02T23:51:25.184Z,98739.38
2018-07-02T23:53:56.659Z,98736.62
2018-07-02T23:56:27.854Z,98735.64
2018-07-02T23:58:58.956Z,98738.14
